Puunene, HI (96784)

3:55 AM HST on August 26, 2016 (GMT -1000)
Lower Kula | | Change Station

Elev 2336 ft 20.76 °N, 156.34 °W | Updated 41 seconds ago

Clear
Clear
64.6 °F
Feels Like 64.6 °F
N
1.0
Wind Variable Wind from ESE
Gusts 2.0 mph

Today
High -- | Low -- °F
--% Chance of Precip.
Yesterday
High -- | Low -- °F
Precip. -- in
Pressure 30.00 in
Visibility 10.0 miles
Clouds Clear
Dew Point 62 °F
Humidity 92%
Rainfall 0.00 in
Snow Depth Not available.
6:07 AM 6:45 PM
Waning Crescent, 34% visible
METAR PHNY 261256Z AUTO 05009G15KT 10SM CLR 22/19 A3007 RMK AO2 SLP158 T02170189 PNO $
Pressure 30.00 in
Visibility 10.0 miles
Clouds Clear
Dew Point 62 °F
Humidity 92%
Rainfall 0.00 in
Snow Depth Not available.
6:07 AM 6:45 PM
Waning Crescent, 34% visible
METAR PHNY 261256Z AUTO 05009G15KT 10SM CLR 22/19 A3007 RMK AO2 SLP158 T02170189 PNO $

10-Day Weather Forecast

Almanac

Astronomy

Aug. 26, 2016 Rise Set
Actual Time
Civil Twilight
Nautical Twilight
Astronomical Twilight
Moon
Length of Visible Light
Length of Day
Tomorrow will be .
, % of the Moon is Illuminated

Today's Extremes

State Highs State Lows

Community

WunderPhotos

Upload Photos

1,935,084 photos uploaded!

WunderBlog® & News

Nearby

Air Quality

  Air Quality AQ Index Pollutant
Not available.

Snow Depth

Station Depth Elevation

Earthquake Activity

City Distance Mag. Time & Date
Minimum magnitude displayed is 2.5.

Coastal Water Temperatures

Place Temperature

Stations

Nearby Weather Stations

Station Location Temp. Windchill Dew Point Humidity Wind Precip. Elev Updated Type
                   

Watches & Warnings

There are currently no watches in effect.